Time;durP1;ratioP1;P1;durP2;ratioP2;P2;SDS_P1;SDS_P2;PMS_P1;PMS_P2;Temp;Humidity;BMP_temperature;BMP_pressure;BME280_temperature;BME280_humidity;BME280_pressure;Samples;Min_cycle;Max_cycle;Signal;HPM_P1;HPM_P2
2022/05/01 00:02:13;;;;;;;70.72;38.60;;;7.10;99.90;;;;;;5014574;28;20121;-84
2022/05/01 00:04:39;;;;;;;66.88;37.83;;;7.10;99.90;;;;;;5014770;28;20116;-84
2022/05/01 00:07:05;;;;;;;64.25;37.95;;;7.10;99.90;;;;;;5014585;28;20075;-84
2022/05/01 00:09:30;;;;;;;78.93;40.13;;;7.00;99.90;;;;;;5014875;28;20025;-85
2022/05/01 00:11:57;;;;;;;74.85;39.40;;;7.10;99.90;;;;;;5031385;28;20121;-84
2022/05/01 00:14:22;;;;;;;76.07;37.45;;;7.10;99.90;;;;;;5014059;28;20057;-85
2022/05/01 00:16:49;;;;;;;72.05;40.55;;;7.00;99.90;;;;;;5014536;28;20150;-84
2022/05/01 00:19:15;;;;;;;80.70;38.42;;;7.10;99.90;;;;;;5031324;28;20504;-85
2022/05/01 00:21:41;;;;;;;68.25;38.10;;;7.10;99.90;;;;;;5014289;28;20041;-84
2022/05/01 00:24:07;;;;;;;71.55;39.47;;;7.10;99.90;;;;;;5014728;28;20029;-84
2022/05/01 00:26:34;;;;;;;73.65;39.28;;;7.10;99.90;;;;;;5014866;28;20136;-84
2022/05/01 00:29:04;;;;;;;77.57;40.92;;;7.10;99.90;;;;;;5015066;28;20022;-84
2022/05/01 00:31:30;;;;;;;61.33;36.58;;;7.10;99.90;;;;;;5014918;28;20040;-84
2022/05/01 00:36:40;;;;;;;68.70;38.88;;;7.10;99.90;;;;;;5031258;28;20030;-84
2022/05/01 00:39:08;;;;;;;71.20;38.35;;;7.10;99.90;;;;;;5014929;28;20040;-84
2022/05/01 00:41:35;;;;;;;67.28;37.90;;;7.10;99.90;;;;;;5031381;28;20056;-84
2022/05/01 00:44:03;;;;;;;69.90;41.30;;;7.10;99.90;;;;;;5031524;28;20533;-84
2022/05/01 00:46:31;;;;;;;67.40;39.55;;;7.10;99.90;;;;;;5013864;28;20029;-84
2022/05/01 00:48:59;;;;;;;72.00;38.03;;;7.10;99.90;;;;;;5030844;28;20401;-84
2022/05/01 00:51:25;;;;;;;78.00;39.22;;;7.10;99.90;;;;;;5014902;28;20033;-85
2022/05/01 00:53:52;;;;;;;75.63;40.38;;;7.10;99.90;;;;;;5014806;28;20034;-84
2022/05/01 00:56:18;;;;;;;72.25;40.17;;;7.00;99.90;;;;;;5014664;28;20037;-84
2022/05/01 00:58:46;;;;;;;75.05;40.45;;;7.00;99.90;;;;;;5031354;28;20045;-84
2022/05/01 01:01:13;;;;;;;66.47;38.50;;;7.00;99.90;;;;;;5031292;28;20115;-84
2022/05/01 01:03:39;;;;;;;76.47;38.92;;;7.10;99.90;;;;;;5014802;28;20040;-84
2022/05/01 01:06:06;;;;;;;65.03;38.55;;;7.00;99.90;;;;;;5014327;28;20095;-84
2022/05/01 01:08:32;;;;;;;77.25;39.00;;;7.00;99.90;;;;;;5031123;28;20116;-84
2022/05/01 01:10:58;;;;;;;67.13;37.80;;;7.00;99.90;;;;;;5030900;28;20044;-84
2022/05/01 01:13:28;;;;;;;66.72;38.13;;;7.00;99.90;;;;;;5014549;28;20061;-85
2022/05/01 01:15:55;;;;;;;61.45;37.92;;;7.00;99.90;;;;;;5016937;28;20025;-84
2022/05/01 01:18:21;;;;;;;78.07;39.45;;;7.00;99.90;;;;;;5034056;28;20431;-85
2022/05/01 01:20:47;;;;;;;70.93;38.03;;;7.00;99.90;;;;;;5034517;28;20095;-85
2022/05/01 01:23:14;;;;;;;62.85;38.17;;;7.00;99.90;;;;;;5017883;28;20037;-84
2022/05/01 01:25:40;;;;;;;62.88;36.90;;;7.00;99.90;;;;;;5034451;28;20072;-85
2022/05/01 01:28:08;;;;;;;68.85;39.97;;;7.10;99.90;;;;;;5034385;28;20563;-84
2022/05/01 01:33:20;;;;;;;69.20;39.30;;;7.10;99.90;;;;;;5033941;28;20374;-85
2022/05/01 01:35:49;;;;;;;70.38;39.30;;;7.20;99.90;;;;;;5033264;28;20091;-84
2022/05/01 01:38:16;;;;;;;67.45;38.92;;;7.20;99.90;;;;;;5016890;28;20034;-84
2022/05/01 01:40:48;;;;;;;68.20;39.55;;;7.20;99.90;;;;;;5033724;28;20033;-84
2022/05/01 01:43:18;;;;;;;77.55;42.75;;;7.30;99.90;;;;;;5017404;28;20087;-84
2022/05/01 01:45:46;;;;;;;73.10;40.30;;;7.30;99.90;;;;;;5017480;28;20034;-84
2022/05/01 01:48:13;;;;;;;67.97;40.00;;;7.30;99.90;;;;;;5017292;28;20793;-84
2022/05/01 01:51:15;;;;;;;66.53;38.33;;;7.30;99.90;;;;;;5033710;28;20033;-84
2022/05/01 01:53:43;;;;;;;72.28;37.75;;;7.30;99.90;;;;;;4960647;28;20026;-84
2022/05/01 01:56:09;;;;;;;64.32;38.40;;;7.30;99.90;;;;;;5022517;28;20454;-84
2022/05/01 01:58:36;;;;;;;67.28;36.80;;;7.30;99.90;;;;;;5033891;28;20091;-84
2022/05/01 02:01:03;;;;;;;55.70;35.67;;;7.40;99.90;;;;;;5016838;28;20033;-84
2022/05/01 02:03:29;;;;;;;66.32;37.45;;;7.30;99.90;;;;;;5033802;28;20396;-84
2022/05/01 02:05:55;;;;;;;62.85;34.83;;;7.30;99.90;;;;;;5033918;28;20033;-83
2022/05/01 02:08:21;;;;;;;63.75;35.10;;;7.30;99.90;;;;;;5017720;28;20029;-84
2022/05/01 02:10:47;;;;;;;62.15;33.92;;;7.20;99.90;;;;;;5017506;28;20099;-85
2022/05/01 02:13:13;;;;;;;52.40;33.17;;;7.20;99.90;;;;;;5017063;28;20030;-84
2022/05/01 02:15:40;;;;;;;62.42;34.00;;;7.20;99.90;;;;;;5017286;28;20059;-85
2022/05/01 02:18:06;;;;;;;63.55;33.70;;;7.20;99.90;;;;;;5017047;28;20033;-84
2022/05/01 02:21:34;;;;;;;58.58;34.17;;;7.20;99.90;;;;;;5033501;28;20060;-84
2022/05/01 02:23:20;;;;;;;65.63;36.63;;;7.20;99.90;;;;;;5033382;28;20037;-85
2022/05/01 02:25:47;;;;;;;61.65;35.58;;;7.10;99.90;;;;;;5032584;28;20030;-84
2022/05/01 02:28:13;;;;;;;59.28;35.47;;;7.20;99.90;;;;;;5016932;28;20128;-84
2022/05/01 02:30:39;;;;;;;66.93;36.40;;;7.20;99.90;;;;;;5017037;28;20610;-84
2022/05/01 02:33:08;;;;;;;63.03;34.08;;;7.20;99.90;;;;;;5034780;28;20026;-84
2022/05/01 02:36:06;;;;;;;62.42;36.10;;;7.20;99.90;;;;;;5016778;28;20358;-84
2022/05/01 02:38:34;;;;;;;66.95;36.30;;;7.20;99.90;;;;;;5016818;28;20041;-84
2022/05/01 02:41:00;;;;;;;63.50;37.10;;;7.10;99.90;;;;;;5016838;28;20025;-84
2022/05/01 02:43:27;;;;;;;65.80;36.05;;;7.10;99.90;;;;;;5016470;28;20029;-84
2022/05/01 02:45:52;;;;;;;65.43;35.45;;;7.10;99.90;;;;;;5016544;28;20485;-84
2022/05/01 02:48:18;;;;;;;66.22;38.08;;;7.10;99.90;;;;;;5032783;28;20034;-84
2022/05/01 02:50:44;;;;;;;60.80;35.60;;;7.10;99.90;;;;;;5033351;28;20030;-85
2022/05/01 02:53:09;;;;;;;69.82;37.45;;;7.20;99.90;;;;;;5016943;28;20036;-84
2022/05/01 02:55:36;;;;;;;68.80;38.28;;;7.20;99.90;;;;;;5016746;28;20036;-84
2022/05/01 02:58:02;;;;;;;63.33;37.83;;;7.20;99.90;;;;;;5032250;28;20029;-84
2022/05/01 03:00:28;;;;;;;64.90;37.67;;;7.30;99.90;;;;;;5032587;28;20038;-85
2022/05/01 03:02:57;;;;;;;67.07;37.83;;;7.30;99.90;;;;;;5032749;28;20037;-85
2022/05/01 03:05:26;;;;;;;62.45;36.30;;;7.30;99.90;;;;;;5016148;28;20079;-84
2022/05/01 03:07:55;;;;;;;72.38;37.47;;;7.20;99.90;;;;;;5031995;28;20037;-84
2022/05/01 03:10:22;;;;;;;64.47;36.42;;;7.30;99.90;;;;;;5032252;28;20041;-84
2022/05/01 03:12:48;;;;;;;68.70;36.38;;;7.30;99.90;;;;;;5032119;28;20029;-84
2022/05/01 03:15:13;;;;;;;65.63;37.05;;;7.20;99.90;;;;;;5015559;28;20497;-85
2022/05/01 03:23:07;;;;;;;54.75;32.65;;;7.30;99.90;;;;;;5032398;28;20049;-84
2022/05/01 03:25:33;;;;;;;65.10;37.30;;;7.30;99.90;;;;;;5032088;28;20029;-84
2022/05/01 03:27:59;;;;;;;61.92;36.47;;;7.30;99.90;;;;;;5015756;28;20111;-84
2022/05/01 03:30:25;;;;;;;60.38;34.97;;;7.30;99.90;;;;;;5015384;28;20035;-84
2022/05/01 03:32:51;;;;;;;61.72;35.50;;;7.30;99.90;;;;;;5015912;28;20083;-84
2022/05/01 03:35:18;;;;;;;62.00;34.65;;;7.30;99.90;;;;;;5016092;28;20727;-84
2022/05/01 03:37:44;;;;;;;59.67;35.30;;;7.30;99.90;;;;;;5014682;28;20029;-84
2022/05/01 03:40:14;;;;;;;55.50;33.22;;;7.30;99.90;;;;;;5015707;28;20035;-84
2022/05/01 03:42:41;;;;;;;61.83;34.95;;;7.30;99.90;;;;;;5015692;28;20068;-85
2022/05/01 03:45:10;;;;;;;63.45;36.70;;;7.30;99.90;;;;;;5032295;28;20029;-84
2022/05/01 03:47:37;;;;;;;61.55;35.33;;;7.30;99.90;;;;;;5032040;28;20028;-85
2022/05/01 03:50:03;;;;;;;69.35;36.33;;;7.30;99.90;;;;;;5015916;28;20083;-84
2022/05/01 03:52:29;;;;;;;72.68;35.97;;;7.30;99.90;;;;;;5015706;28;20029;-84
2022/05/01 03:54:55;;;;;;;66.70;34.80;;;7.30;99.90;;;;;;5031872;28;20108;-84
2022/05/01 03:57:21;;;;;;;59.78;35.15;;;7.30;99.90;;;;;;5031403;28;20029;-84
2022/05/01 03:59:47;;;;;;;59.95;34.47;;;7.30;99.90;;;;;;5031749;28;20030;-84
2022/05/01 04:02:15;;;;;;;62.20;36.05;;;7.30;99.90;;;;;;5015165;28;20674;-84
2022/05/01 04:04:42;;;;;;;52.42;33.17;;;7.20;99.90;;;;;;5014949;28;20025;-82
2022/05/01 04:07:08;;;;;;;55.72;33.78;;;7.20;99.90;;;;;;5031858;28;20069;-83
2022/05/01 04:09:34;;;;;;;58.22;34.83;;;7.20;99.90;;;;;;5031909;28;20494;-82
2022/05/01 04:11:59;;;;;;;63.00;33.20;;;7.20;99.90;;;;;;5015431;28;20362;-82
2022/05/01 04:14:25;;;;;;;56.28;34.65;;;7.20;99.90;;;;;;5015044;28;20026;-82
2022/05/01 04:16:51;;;;;;;56.38;32.83;;;7.20;99.90;;;;;;5014823;28;20528;-82
2022/05/01 04:19:17;;;;;;;60.20;31.85;;;7.20;99.90;;;;;;5031448;28;20149;-82
2022/05/01 04:21:43;;;;;;;63.55;35.22;;;7.20;99.90;;;;;;5031317;28;20512;-82
2022/05/01 04:24:09;;;;;;;59.42;34.50;;;7.20;99.90;;;;;;5031365;28;20042;-82
2022/05/01 04:26:34;;;;;;;58.80;35.35;;;7.20;99.90;;;;;;5014540;28;20025;-82
2022/05/01 04:31:44;;;;;;;58.42;31.58;;;7.20;99.90;;;;;;5031513;28;20037;-82
2022/05/01 04:34:10;;;;;;;54.28;33.58;;;7.20;99.90;;;;;;5031465;28;20032;-82
2022/05/01 04:36:36;;;;;;;61.35;34.42;;;7.20;99.90;;;;;;5014248;28;20029;-82
2022/05/01 04:39:02;;;;;;;57.08;33.88;;;7.30;99.90;;;;;;5014718;28;20477;-82
2022/05/01 04:41:29;;;;;;;52.50;34.28;;;7.30;99.90;;;;;;5032429;28;20040;-82
2022/05/01 04:43:55;;;;;;;55.10;33.88;;;7.30;99.90;;;;;;5032496;28;20823;-82
2022/05/01 04:46:33;;;;;;;55.95;34.40;;;7.30;99.90;;;;;;5014327;28;20033;-81
2022/05/01 04:48:59;;;;;;;67.20;36.45;;;7.30;99.90;;;;;;5031037;28;20034;-82
2022/05/01 04:51:25;;;;;;;67.57;35.17;;;7.40;99.90;;;;;;5018150;28;20514;-82
2022/05/01 04:53:50;;;;;;;55.67;33.90;;;7.40;99.90;;;;;;5035966;28;20489;-82
2022/05/01 04:59:01;;;;;;;54.03;31.60;;;7.40;99.90;;;;;;5036358;28;20041;-82
2022/05/01 05:01:54;;;;;;;55.63;32.90;;;7.50;99.90;;;;;;5035213;28;20128;-82
2022/05/01 05:04:44;;;;;;;53.30;32.30;;;7.50;99.90;;;;;;5035164;28;20040;-82
2022/05/01 05:07:10;;;;;;;54.53;31.95;;;7.60;99.90;;;;;;5017992;28;20037;-82
2022/05/01 05:09:54;;;;;;;55.97;32.67;;;7.70;99.90;;;;;;5034509;28;20037;-82
2022/05/01 05:12:20;;;;;;;48.70;32.28;;;7.80;99.90;;;;;;5018279;28;20060;-82
2022/05/01 05:14:49;;;;;;;50.55;30.30;;;7.90;99.90;;;;;;5035083;28;20090;-82
2022/05/01 05:17:18;;;;;;;48.40;29.73;;;8.00;99.90;;;;;;5034303;28;20045;-82
2022/05/01 05:19:43;;;;;;;44.80;29.17;;;8.10;99.90;;;;;;5034582;28;20397;-83
2022/05/01 05:22:09;;;;;;;51.08;28.40;;;8.10;99.90;;;;;;5035984;28;20030;-82
2022/05/01 05:24:34;;;;;;;50.38;28.80;;;8.20;99.90;;;;;;5035112;28;20362;-82
2022/05/01 05:27:00;;;;;;;41.58;27.80;;;8.20;99.90;;;;;;5034822;28;20039;-82
2022/05/01 05:29:26;;;;;;;48.45;28.65;;;8.20;99.90;;;;;;5034751;28;20103;-82
2022/05/01 05:31:51;;;;;;;47.88;28.75;;;8.30;99.90;;;;;;5034555;28;20026;-82
2022/05/01 05:34:17;;;;;;;43.35;28.52;;;8.40;99.90;;;;;;5017976;28;20037;-82
2022/05/01 05:36:43;;;;;;;41.25;26.85;;;8.40;99.90;;;;;;5034110;28;20025;-82
2022/05/01 05:39:08;;;;;;;44.70;27.77;;;8.50;99.90;;;;;;5034282;28;20037;-82
2022/05/01 05:41:35;;;;;;;44.55;25.92;;;8.50;99.90;;;;;;5034192;28;20933;-82
2022/05/01 05:44:01;;;;;;;41.55;26.90;;;8.70;99.90;;;;;;5017776;28;20733;-82
2022/05/01 05:46:26;;;;;;;40.08;27.35;;;8.80;99.90;;;;;;5017061;28;20037;-82
2022/05/01 05:48:52;;;;;;;44.85;28.75;;;8.90;99.90;;;;;;5018104;28;20025;-82
2022/05/01 05:51:18;;;;;;;51.05;26.63;;;9.00;99.90;;;;;;5017819;28;20040;-82
2022/05/01 05:53:43;;;;;;;36.40;24.98;;;9.10;99.90;;;;;;5035219;28;20025;-82
2022/05/01 05:56:09;;;;;;;41.45;26.02;;;9.20;99.90;;;;;;5034022;28;20033;-82
2022/05/01 05:58:35;;;;;;;36.88;24.85;;;9.30;99.90;;;;;;5017611;28;20060;-82
2022/05/01 06:01:01;;;;;;;36.83;24.50;;;9.50;99.90;;;;;;5016982;28;20030;-82
2022/05/01 06:03:26;;;;;;;36.47;25.92;;;9.70;99.90;;;;;;5034464;28;20096;-82
2022/05/01 06:05:52;;;;;;;37.72;26.25;;;9.80;99.90;;;;;;5017344;28;20393;-82
2022/05/01 06:08:17;;;;;;;39.85;26.05;;;9.80;99.90;;;;;;5017322;28;20519;-83
2022/05/01 06:10:43;;;;;;;37.45;24.70;;;10.00;99.90;;;;;;5033937;28;20021;-82
2022/05/01 06:13:09;;;;;;;40.90;25.00;;;9.90;99.90;;;;;;5016802;28;20774;-83
2022/05/01 06:15:38;;;;;;;34.75;23.80;;;10.00;99.90;;;;;;5033248;28;20056;-82
2022/05/01 06:18:04;;;;;;;33.25;23.63;;;10.00;99.90;;;;;;5016361;28;20029;-82
2022/05/01 06:20:29;;;;;;;33.80;24.33;;;9.80;99.90;;;;;;5016403;28;20060;-82
2022/05/01 06:22:56;;;;;;;30.83;22.38;;;9.70;99.90;;;;;;5017019;28;20064;-82
2022/05/01 06:25:22;;;;;;;36.83;24.30;;;9.80;99.90;;;;;;5033297;28;20022;-82
2022/05/01 06:27:48;;;;;;;33.90;23.88;;;9.70;99.90;;;;;;5032996;28;20044;-82
2022/05/01 06:30:14;;;;;;;33.10;22.83;;;9.70;99.90;;;;;;5016574;28;20076;-82
2022/05/01 06:32:40;;;;;;;33.60;23.05;;;9.90;99.90;;;;;;5016604;28;20028;-82
2022/05/01 06:35:07;;;;;;;33.90;22.30;;;10.10;99.90;;;;;;5016467;28;20033;-82
2022/05/01 06:37:35;;;;;;;31.15;22.05;;;10.20;99.90;;;;;;5016535;28;20037;-82
2022/05/01 06:40:03;;;;;;;34.92;22.10;;;10.20;99.90;;;;;;5016588;28;20033;-83
2022/05/01 06:42:41;;;;;;;38.42;24.88;;;10.50;99.90;;;;;;5016480;28;20059;-82
2022/05/01 06:45:07;;;;;;;36.28;22.48;;;10.70;99.90;;;;;;5032549;28;20030;-82
2022/05/01 06:47:37;;;;;;;34.10;22.95;;;10.60;99.90;;;;;;5016111;28;20036;-82
2022/05/01 06:50:03;;;;;;;31.17;21.83;;;10.80;99.90;;;;;;5032849;28;20033;-82
2022/05/01 06:52:47;;;;;;;36.95;24.00;;;10.70;99.90;;;;;;5015959;28;20789;-82
2022/05/01 06:55:14;;;;;;;30.35;20.67;;;11.00;99.90;;;;;;5032576;28;20128;-82
2022/05/01 06:57:55;;;;;;;30.17;21.48;;;11.20;99.90;;;;;;5015946;28;20026;-82
2022/05/01 07:00:22;;;;;;;30.85;20.80;;;11.60;99.90;;;;;;5016273;28;20033;-82
2022/05/01 07:02:51;;;;;;;34.50;20.23;;;11.90;99.90;;;;;;5033980;28;20095;-82
2022/05/01 07:05:18;;;;;;;28.50;20.48;;;12.10;99.90;;;;;;5015723;28;20044;-83
2022/05/01 07:07:45;;;;;;;30.95;19.83;;;12.40;99.90;;;;;;5015527;28;20029;-82
2022/05/01 07:10:13;;;;;;;27.35;18.52;;;12.40;99.90;;;;;;5016139;28;20069;-83
2022/05/01 07:12:39;;;;;;;28.92;20.08;;;12.00;99.90;;;;;;5015038;28;20039;-83
2022/05/01 07:15:05;;;;;;;30.70;18.23;;;11.50;99.90;;;;;;5016111;28;20128;-83
2022/05/01 07:17:55;;;;;;;30.95;22.45;;;11.00;99.90;;;;;;5015804;28;20480;-83
2022/05/01 07:20:21;;;;;;;29.63;20.63;;;10.70;99.90;;;;;;5015736;28;20489;-83
2022/05/01 07:22:47;;;;;;;27.67;21.75;;;10.60;99.90;;;;;;5032156;28;20037;-83
2022/05/01 07:25:12;;;;;;;34.95;22.15;;;10.70;99.90;;;;;;5015480;28;20065;-82
2022/05/01 07:27:38;;;;;;;33.88;21.70;;;10.60;99.90;;;;;;5031952;28;20451;-83
2022/05/01 07:30:05;;;;;;;28.75;20.92;;;10.40;99.90;;;;;;5031631;28;20030;-82
2022/05/01 07:32:30;;;;;;;33.00;22.83;;;10.40;99.90;;;;;;5015494;28;20492;-82
2022/05/01 07:34:56;;;;;;;38.70;23.83;;;10.40;99.90;;;;;;5032269;28;20049;-82
2022/05/01 07:37:24;;;;;;;38.08;21.27;;;10.30;99.90;;;;;;5015278;28;20080;-83
2022/05/01 07:39:51;;;;;;;35.97;22.75;;;10.30;99.90;;;;;;5015537;28;20064;-83
2022/05/01 07:42:17;;;;;;;32.22;22.63;;;10.20;99.90;;;;;;5031897;28;20029;-83
2022/05/01 07:44:42;;;;;;;29.23;21.05;;;10.30;99.90;;;;;;5031344;28;20112;-82
2022/05/01 07:47:08;;;;;;;29.85;20.80;;;10.40;99.90;;;;;;5014450;28;20052;-82
2022/05/01 07:49:34;;;;;;;32.80;21.48;;;10.50;99.90;;;;;;5014372;28;20091;-82
2022/05/01 07:51:59;;;;;;;32.85;22.05;;;10.70;99.90;;;;;;5031164;28;20036;-82
2022/05/01 07:54:25;;;;;;;28.77;20.65;;;10.90;99.90;;;;;;5015280;28;20048;-82
2022/05/01 07:56:51;;;;;;;34.00;21.27;;;11.00;99.90;;;;;;5017699;28;20067;-82
2022/05/01 07:59:17;;;;;;;34.55;21.27;;;11.10;99.90;;;;;;5031187;28;20036;-82
2022/05/01 08:01:42;;;;;;;35.45;24.20;;;11.00;99.90;;;;;;5030830;28;20056;-82
2022/05/01 08:06:52;;;;;;;34.63;22.20;;;10.90;99.90;;;;;;5030821;28;20488;-82
2022/05/01 08:09:18;;;;;;;32.05;20.52;;;10.80;99.90;;;;;;5014875;28;20087;-82
2022/05/01 08:11:44;;;;;;;30.95;20.85;;;10.60;99.90;;;;;;5031453;28;20030;-82
2022/05/01 08:14:12;;;;;;;40.00;23.55;;;10.60;99.90;;;;;;5014886;28;20133;-82
2022/05/01 08:16:41;;;;;;;32.15;21.80;;;10.50;99.90;;;;;;5014743;28;20038;-82
2022/05/01 08:21:52;;;;;;;35.13;23.05;;;10.50;99.90;;;;;;5031374;28;20424;-82
2022/05/01 08:24:18;;;;;;;37.47;22.98;;;10.50;99.90;;;;;;5033656;28;20117;-82
2022/05/01 08:26:48;;;;;;;41.20;23.55;;;10.40;99.90;;;;;;5035394;28;20037;-83
2022/05/01 08:29:15;;;;;;;34.90;22.67;;;10.30;99.90;;;;;;5019428;28;20065;-82
2022/05/01 08:31:42;;;;;;;40.17;23.73;;;10.30;99.90;;;;;;5035799;28;20485;-82
2022/05/01 08:34:11;;;;;;;33.58;23.27;;;10.20;99.90;;;;;;5035805;28;20041;-82
2022/05/01 08:36:38;;;;;;;38.10;24.52;;;10.30;99.90;;;;;;5018711;28;20037;-82
2022/05/01 08:39:04;;;;;;;41.78;23.63;;;10.20;99.90;;;;;;5018729;28;20029;-82
2022/05/01 08:41:31;;;;;;;40.15;25.40;;;10.20;99.90;;;;;;5018379;28;20041;-82
2022/05/01 08:43:58;;;;;;;35.10;23.35;;;10.30;99.90;;;;;;5035496;28;20037;-83
2022/05/01 08:46:36;;;;;;;31.45;22.45;;;10.40;99.90;;;;;;5035297;28;20037;-83
2022/05/01 08:49:07;;;;;;;32.95;23.17;;;10.40;99.90;;;;;;5019124;28;20034;-82
2022/05/01 08:51:43;;;;;;;32.35;23.15;;;10.40;99.90;;;;;;5019214;28;20025;-82
2022/05/01 08:54:16;;;;;;;36.08;23.38;;;10.50;99.90;;;;;;5018853;28;20546;-82
2022/05/01 08:56:44;;;;;;;40.47;24.52;;;10.50;99.90;;;;;;5018374;28;20034;-82
2022/05/01 08:59:12;;;;;;;36.22;23.85;;;10.50;99.90;;;;;;5035274;28;20056;-83
2022/05/01 09:01:40;;;;;;;34.92;22.88;;;10.60;99.90;;;;;;5018354;28;20049;-82
2022/05/01 09:04:09;;;;;;;37.88;23.85;;;10.70;99.90;;;;;;5018840;28;20534;-82
2022/05/01 09:06:40;;;;;;;37.33;24.25;;;10.90;99.90;;;;;;5018198;28;20037;-82
2022/05/01 09:09:06;;;;;;;33.28;23.20;;;10.80;99.90;;;;;;5018829;28;20064;-82
2022/05/01 09:14:26;;;;;;;32.58;22.52;;;11.30;99.90;;;;;;5035407;28;20029;-82
2022/05/01 09:17:10;;;;;;;;;;;11.60;99.90;;;;;;5034888;28;20120;-83
2022/05/01 09:19:36;;;;;;;38.90;23.40;;;11.60;99.90;;;;;;5051237;28;20357;-83
2022/05/01 09:22:02;;;;;;;35.85;22.42;;;11.70;99.90;;;;;;5018037;28;20469;-81
2022/05/01 09:24:29;;;;;;;36.17;22.33;;;11.50;99.90;;;;;;5034102;28;20038;-82
2022/05/01 09:26:56;;;;;;;35.03;22.65;;;11.40;99.90;;;;;;5017360;28;20029;-82
2022/05/01 09:29:24;;;;;;;35.47;22.25;;;11.60;99.90;;;;;;5034471;28;20029;-82
2022/05/01 09:31:53;;;;;;;35.83;22.75;;;11.80;99.90;;;;;;5034272;28;20044;-82
2022/05/01 09:34:32;;;;;;;35.30;23.40;;;11.90;99.90;;;;;;5017224;28;20029;-82
2022/05/01 09:37:00;;;;;;;34.53;23.05;;;11.50;99.90;;;;;;5033534;28;20136;-82
2022/05/01 09:39:28;;;;;;;36.97;23.50;;;11.50;99.90;;;;;;5018240;28;20025;-82
2022/05/01 09:41:55;;;;;;;33.25;24.42;;;11.70;99.90;;;;;;5034506;28;20048;-82
2022/05/01 09:44:22;;;;;;;41.35;25.58;;;11.60;99.90;;;;;;5017568;28;20546;-82
2022/05/01 09:46:50;;;;;;;33.00;23.55;;;11.50;99.90;;;;;;5034011;28;20037;-82
2022/05/01 09:49:17;;;;;;;37.67;24.02;;;11.60;99.90;;;;;;5034125;28;20029;-82
2022/05/01 09:51:46;;;;;;;34.65;23.58;;;11.90;99.90;;;;;;5033717;28;20033;-82
2022/05/01 09:54:22;;;;;;;33.65;22.10;;;12.40;99.90;;;;;;5017560;28;20040;-82
2022/05/01 09:56:59;;;;;;;35.60;22.35;;;12.90;99.90;;;;;;5017022;28;20488;-82
2022/05/01 09:59:27;;;;;;;31.40;21.65;;;13.40;99.90;;;;;;5033739;28;20041;-82
2022/05/01 10:02:01;;;;;;;37.38;23.00;;;13.70;99.90;;;;;;5017212;28;20033;-81
2022/05/01 10:04:28;;;;;;;33.25;22.35;;;13.40;99.90;;;;;;5033926;28;20117;-82
2022/05/01 10:06:55;;;;;;;31.00;22.50;;;13.50;99.90;;;;;;5017239;28;20037;-82
2022/05/01 10:09:27;;;;;;;30.52;21.05;;;13.50;99.90;;;;;;5017262;28;20088;-82
2022/05/01 10:11:55;;;;;;;32.95;20.48;;;13.40;99.90;;;;;;5033830;28;20029;-82
2022/05/01 10:14:22;;;;;;;32.35;21.30;;;13.90;99.90;;;;;;5016876;28;20024;-82
2022/05/01 10:16:48;;;;;;;31.25;21.25;;;14.30;99.90;;;;;;5033077;28;20044;-82
2022/05/01 10:19:17;;;;;;;34.72;20.92;;;14.00;99.90;;;;;;5017082;28;20097;-82
2022/05/01 10:21:47;;;;;;;31.05;21.02;;;13.80;99.90;;;;;;5033608;28;20159;-82
2022/05/01 10:24:14;;;;;;;29.67;21.75;;;13.90;99.90;;;;;;5016828;28;20091;-82
2022/05/01 10:27:12;;;;;;;33.05;20.80;;;13.70;99.90;;;;;;5033400;28;20026;-82
2022/05/01 10:33:08;;;;;;;27.52;18.98;;;14.20;99.90;;;;;;5033648;28;20523;-82
2022/05/01 10:36:19;;;;;;;26.02;18.08;;;14.90;99.90;;;;;;5016797;28;20549;-82
2022/05/01 10:39:03;;;;;;;30.92;21.17;;;15.20;99.90;;;;;;5017112;28;20532;-82
2022/05/01 10:41:30;;;;;;;31.13;21.55;;;15.20;99.90;;;;;;5033744;28;20481;-82
2022/05/01 10:43:58;;;;;;;29.27;20.73;;;15.00;99.90;;;;;;5016978;28;20033;-82
2022/05/01 10:46:29;;;;;;;33.55;22.58;;;14.90;99.90;;;;;;5032990;28;20037;-82
2022/05/01 10:48:58;;;;;;;28.33;22.63;;;14.50;99.90;;;;;;5018515;28;20456;-82
2022/05/01 10:51:38;;;;;;;31.33;20.10;;;14.40;99.90;;;;;;5032535;28;20052;-82
2022/05/01 10:54:10;;;;;;;31.13;20.02;;;14.50;99.90;;;;;;5016428;28;20033;-82
2022/05/01 10:56:37;;;;;;;29.73;20.75;;;14.70;99.90;;;;;;5032414;28;20026;-82
2022/05/01 10:59:32;;;;;;;29.98;20.38;;;14.20;99.90;;;;;;5031728;28;20499;-82
2022/05/01 11:02:01;;;;;;;28.63;21.17;;;13.60;99.90;;;;;;5015948;28;20038;-82
2022/05/01 11:04:32;;;;;;;26.83;20.70;;;13.40;99.90;;;;;;5016489;28;20029;-82
2022/05/01 11:06:58;;;;;;;29.38;20.00;;;13.20;99.90;;;;;;5033844;28;20251;-82
2022/05/01 11:09:25;;;;;;;28.00;20.80;;;13.50;99.90;;;;;;5016142;28;20116;-82
2022/05/01 11:11:57;;;;;;;29.75;19.02;;;14.00;99.90;;;;;;5016117;28;20029;-82
2022/05/01 11:14:52;;;;;;;34.55;21.30;;;14.60;99.90;;;;;;5032144;28;20033;-82
2022/05/01 11:17:36;;;;;;;30.25;20.13;;;14.50;99.90;;;;;;5020112;28;20072;-82
2022/05/01 11:20:14;;;;;;;32.65;20.27;;;14.70;99.90;;;;;;5016122;28;20025;-82
2022/05/01 11:22:40;;;;;;;27.55;20.95;;;14.60;99.90;;;;;;5032537;28;20037;-82
2022/05/01 11:25:12;;;;;;;29.48;20.80;;;14.00;99.90;;;;;;5015491;28;20030;-82
2022/05/01 11:27:50;;;;;;;31.90;21.33;;;13.50;99.90;;;;;;5032113;28;20084;-82
2022/05/01 11:30:22;;;;;;;33.28;21.83;;;13.50;99.90;;;;;;5015873;28;20568;-82
2022/05/01 11:33:08;;;;;;;32.58;20.60;;;13.60;99.90;;;;;;5016048;28;20033;-82
2022/05/01 11:36:02;;;;;;;32.10;20.23;;;13.50;99.90;;;;;;5033283;28;20120;-82
2022/05/01 11:38:38;;;;;;;28.83;21.23;;;13.90;99.90;;;;;;5015135;28;20494;-82
2022/05/01 11:41:04;;;;;;;27.88;21.52;;;14.20;99.90;;;;;;5031763;28;20524;-82
2022/05/01 11:43:31;;;;;;;30.83;21.63;;;14.30;99.90;;;;;;5015566;28;20029;-82
2022/05/01 11:45:59;;;;;;;29.95;21.90;;;14.40;99.90;;;;;;5017565;28;20041;-82
2022/05/01 11:48:25;;;;;;;28.90;21.08;;;14.40;99.90;;;;;;5031568;28;20053;-82
2022/05/01 11:50:52;;;;;;;28.17;21.33;;;14.10;99.90;;;;;;5014817;28;20037;-83
2022/05/01 11:53:32;;;;;;;33.05;22.50;;;13.90;99.90;;;;;;5031063;28;20044;-79
2022/05/01 12:04:26;;;;;;;34.33;22.75;;;13.80;99.90;;;;;;5032067;28;20120;-81
2022/05/01 12:07:09;;;;;;;34.20;23.90;;;13.80;99.90;;;;;;5014917;28;20034;-81
2022/05/01 12:09:39;;;;;;;26.85;19.38;;;13.80;99.90;;;;;;5031662;28;20025;-81
2022/05/01 12:12:16;;;;;;;32.80;24.17;;;13.70;99.90;;;;;;5033259;28;20116;-81
2022/05/01 12:14:44;;;;;;;30.45;22.10;;;13.60;99.90;;;;;;5015560;28;20112;-81
2022/05/01 12:17:14;;;;;;;34.75;23.27;;;13.40;99.90;;;;;;5031587;28;20064;-82
2022/05/01 12:19:44;;;;;;;28.40;22.38;;;13.10;99.90;;;;;;5031968;28;20447;-81
2022/05/01 12:22:16;;;;;;;29.65;22.08;;;12.70;99.90;;;;;;5032088;28;20724;-81
2022/05/01 12:24:46;;;;;;;32.00;21.40;;;12.50;99.90;;;;;;5031820;28;20064;-81
2022/05/01 12:27:14;;;;;;;33.58;22.58;;;12.40;99.90;;;;;;5014717;28;20104;-81
2022/05/01 12:29:47;;;;;;;32.88;22.80;;;12.40;99.90;;;;;;5031467;28;20037;-81
2022/05/01 12:32:14;;;;;;;33.75;24.08;;;12.50;99.90;;;;;;5031398;28;20025;-81
2022/05/01 12:35:01;;;;;;;26.92;20.10;;;12.70;99.90;;;;;;5014979;28;20034;-81
2022/05/01 12:37:35;;;;;;;32.08;22.38;;;13.10;99.90;;;;;;5031604;28;20507;-81
2022/05/01 12:45:53;;;;;;;28.20;19.27;;;14.60;99.90;;;;;;5031294;28;20477;-81
2022/05/01 12:48:20;;;;;;;27.58;20.95;;;14.40;99.90;;;;;;5014875;28;20528;-81
2022/05/01 12:50:55;;;;;;;27.90;19.92;;;14.40;99.90;;;;;;5032676;28;20025;-82
2022/05/01 12:53:29;;;;;;;27.05;20.17;;;14.50;99.90;;;;;;5031163;28;20025;-82
2022/05/01 12:55:56;;;;;;;26.75;19.70;;;14.80;99.90;;;;;;5031593;28;20037;-81
2022/05/01 12:58:32;;;;;;;29.42;19.77;;;15.20;99.90;;;;;;5032362;28;20080;-81
2022/05/01 13:01:02;;;;;;;38.75;20.65;;;15.60;99.90;;;;;;5015317;28;20045;-81
2022/05/01 13:03:38;;;;;;;24.92;18.30;;;16.00;99.90;;;;;;5031392;28;20132;-81
2022/05/01 13:06:04;;;;;;;27.30;19.50;;;16.40;99.90;;;;;;5014590;28;20029;-82
2022/05/01 13:08:32;;;;;;;24.70;18.83;;;17.30;99.90;;;;;;5032410;28;20113;-82
2022/05/01 13:11:17;;;;;;;29.05;17.27;;;18.00;99.90;;;;;;5016238;28;20057;-82
2022/05/01 13:13:57;;;;;;;20.48;16.67;;;19.00;99.90;;;;;;5034636;28;20493;-82
2022/05/01 13:16:32;;;;;;;30.33;19.40;;;19.00;99.90;;;;;;5034587;28;20041;-82
2022/05/01 13:19:10;;;;;;;25.98;19.27;;;18.20;99.90;;;;;;5034529;28;20272;-81
2022/05/01 13:21:44;;;;;;;23.67;17.17;;;17.50;99.90;;;;;;5034404;28;20044;-81
2022/05/01 13:24:18;;;;;;;25.08;18.70;;;17.10;99.90;;;;;;5035767;28;20048;-81
2022/05/01 13:26:43;;;;;;;25.60;19.15;;;17.10;99.90;;;;;;5034647;28;20064;-82